Time;durP1;ratioP1;P1;durP2;ratioP2;P2;SDS_P1;SDS_P2;PMS_P1;PMS_P2;Temp;Humidity;BMP_temperature;BMP_pressure;BME280_temperature;BME280_humidity;BME280_pressure;Samples;Min_cycle;Max_cycle;Signal;HPM_P1;HPM_P2
2021/01/13 00:02:09;;;;;;;1.50;0.98;;;;;;;1.35;100.00;96775.44;4900863;29;20038;-82
2021/01/13 00:04:35;;;;;;;2.47;2.28;;;;;;;1.36;100.00;96780.63;4916296;29;20031;-81
2021/01/13 00:07:03;;;;;;;4.15;1.95;;;;;;;1.26;100.00;96771.34;4915670;29;20036;-82
2021/01/13 00:09:29;;;;;;;2.97;1.50;;;;;;;1.21;100.00;96777.72;4916838;29;20032;-82
2021/01/13 00:11:55;;;;;;;1.50;1.40;;;;;;;1.25;100.00;96779.34;4916454;29;20426;-81
2021/01/13 00:14:22;;;;;;;3.58;2.00;;;;;;;1.19;100.00;96774.31;4948483;29;20057;-81
2021/01/13 00:16:47;;;;;;;0.88;0.88;;;;;;;1.16;100.00;96777.06;4948218;29;20439;-81
2021/01/13 00:19:13;;;;;;;2.05;1.23;;;;;;;1.04;100.00;96770.47;4900911;29;20111;-82
2021/01/13 00:21:38;;;;;;;3.80;1.55;;;;;;;1.05;100.00;96782.69;4900482;29;20036;-82
2021/01/13 00:24:05;;;;;;;2.58;2.38;;;;;;;1.06;100.00;96785.28;4916519;29;20051;-81
2021/01/13 00:26:30;;;;;;;2.20;2.05;;;;;;;0.99;100.00;96775.03;4901200;29;20036;-81
2021/01/13 00:28:56;;;;;;;4.78;1.60;;;;;;;0.92;100.00;96778.81;4900567;29;20028;-82
2021/01/13 00:31:21;;;;;;;12.88;2.65;;;;;;;1.03;100.00;96776.66;4916453;29;20499;-81
2021/01/13 00:33:47;;;;;;;2.90;2.60;;;;;;;0.98;100.00;96770.69;4900919;29;20031;-81
2021/01/13 00:36:24;;;;;;;2.83;1.83;;;;;;;1.08;100.00;96782.59;4916264;29;20463;-80
2021/01/13 00:38:52;;;;;;;1.25;1.20;;;;;;;1.01;100.00;96770.59;4929368;29;20047;-81
2021/01/13 00:41:18;;;;;;;2.30;2.10;;;;;;;1.07;100.00;96775.63;4920981;29;20028;-81
2021/01/13 00:43:44;;;;;;;5.65;2.60;;;;;;;1.14;100.00;96768.38;4916472;29;20030;-81
2021/01/13 00:46:10;;;;;;;2.88;2.65;;;;;;;1.07;100.00;96775.63;4900246;29;20139;-82
2021/01/13 00:48:36;;;;;;;1.60;1.50;;;;;;;1.04;100.00;96779.25;4902110;29;20511;-82
2021/01/13 00:51:02;;;;;;;2.08;0.85;;;;;;;1.03;100.00;96772.25;4901510;29;20036;-81
2021/01/13 00:53:28;;;;;;;1.85;1.75;;;;;;;0.96;100.00;96767.25;4949527;29;20458;-81
2021/01/13 00:55:53;;;;;;;3.90;2.33;;;;;;;0.97;100.00;96774.25;4917014;29;20024;-80
2021/01/13 00:58:22;;;;;;;1.38;1.27;;;;;;;0.97;100.00;96774.25;4916412;29;20036;-81
2021/01/13 01:00:48;;;;;;;3.20;1.60;;;;;;;1.01;100.00;96779.34;4920157;29;20035;-81
2021/01/13 01:03:13;;;;;;;2.58;2.40;;;;;;;0.93;100.00;96773.50;4903607;29;20032;-81
2021/01/13 01:05:39;;;;;;;2.17;1.63;;;;;;;0.87;100.00;96771.09;4903759;29;20027;-81
2021/01/13 01:08:04;;;;;;;1.05;0.95;;;;;;;1.00;100.00;96768.88;4903779;29;20044;-82
2021/01/13 01:10:32;;;;;;;2.63;1.65;;;;;;;0.97;100.00;96768.97;4904071;29;20062;-80
2021/01/13 01:12:58;;;;;;;2.40;2.15;;;;;;;0.99;100.00;96761.88;4919335;29;20028;-83
2021/01/13 01:15:24;;;;;;;2.15;1.88;;;;;;;0.95;100.00;96761.13;4903800;29;20418;-81
2021/01/13 01:17:50;;;;;;;4.93;3.00;;;;;;;0.90;100.00;96763.06;4935000;29;20161;-81
2021/01/13 01:20:16;;;;;;;1.42;1.33;;;;;;;0.95;100.00;96753.22;4935259;29;20102;-81
2021/01/13 01:23:02;;;;;;;3.85;2.47;;;;;;;0.98;100.00;96749.66;4931458;29;20344;-80
2021/01/13 01:25:29;;;;;;;1.83;1.70;;;;;;;1.05;100.00;96757.25;4915977;29;20488;-81
2021/01/13 01:27:59;;;;;;;1.48;1.38;;;;;;;1.02;100.00;96740.69;4865343;28;20048;-80
2021/01/13 01:30:26;;;;;;;1.55;1.42;;;;;;;1.17;100.00;96753.28;4951080;29;20520;-81
2021/01/13 01:32:52;;;;;;;2.80;2.33;;;;;;;1.13;100.00;96743.81;4918982;29;20042;-81
2021/01/13 01:35:18;;;;;;;3.05;2.70;;;;;;;1.12;100.00;96730.69;4919264;29;20035;-80
2021/01/13 01:37:44;;;;;;;7.85;2.28;;;;;;;1.11;100.00;96719.28;4919011;29;20031;-81
2021/01/13 01:40:13;;;;;;;4.72;2.95;;;;;;;1.19;100.00;96730.41;4921714;29;20032;-83
2021/01/13 01:42:58;;;;;;;4.03;2.10;;;;;;;1.24;100.00;96728.44;4933400;29;20046;-82
2021/01/13 01:45:27;;;;;;;4.68;2.47;;;;;;;1.21;100.00;96717.16;4900221;29;20052;-83
2021/01/13 01:48:14;;;;;;;6.25;2.40;;;;;;;1.14;100.00;96716.53;4941093;29;20036;-84
2021/01/13 01:50:45;;;;;;;3.10;2.80;;;;;;;1.13;100.00;96709.56;4916211;29;20038;-83
2021/01/13 01:53:13;;;;;;;2.63;1.98;;;;;;;1.06;100.00;96715.97;4918884;29;20495;-84
2021/01/13 01:56:09;;;;;;;4.97;2.78;;;;;;;1.03;100.00;96710.84;4935207;29;20511;-82
2021/01/13 01:58:36;;;;;;;2.90;2.65;;;;;;;1.10;100.00;96714.97;4918761;29;20504;-82
2021/01/13 02:01:03;;;;;;;5.20;2.90;;;;;;;1.05;100.00;96699.31;4902791;29;20510;-81
2021/01/13 02:03:50;;;;;;;5.72;3.50;;;;;;;1.15;100.00;96710.34;4950520;29;20027;-83
2021/01/13 02:06:17;;;;;;;2.85;2.28;;;;;;;1.23;100.00;96708.28;4896071;29;20028;-82
2021/01/13 02:08:43;;;;;;;1.83;1.73;;;;;;;1.23;100.00;96710.91;4934281;29;20340;-83
2021/01/13 02:11:19;;;;;;;8.75;4.15;;;;;;;1.19;100.00;96698.81;4907246;29;20035;-83
2021/01/13 02:13:46;;;;;;;4.75;3.13;;;;;;;1.18;100.00;96699.72;4948007;28;20487;-84
2021/01/13 02:16:15;;;;;;;4.57;3.15;;;;;;;1.25;100.00;96710.88;4933659;29;20198;-83
2021/01/13 02:18:48;;;;;;;1.38;1.27;;;;;;;1.21;100.00;96693.47;4941607;29;20438;-83
2021/01/13 02:21:19;;;;;;;2.58;2.38;;;;;;;1.18;100.00;96704.97;4915229;29;20406;-82
2021/01/13 02:24:08;;;;;;;2.20;2.05;;;;;;;1.13;100.00;96709.56;4912387;29;20088;-83
2021/01/13 02:27:11;;;;;;;3.13;2.40;;;;;;;1.17;100.00;96710.31;4912795;29;20184;-82
2021/01/13 02:29:43;;;;;;;;;;;;;;;1.21;100.00;96718.03;4911546;29;20068;-82
2021/01/13 02:32:16;;;;;;;1.77;1.65;;;;;;;1.02;100.00;96720.50;4891256;29;19938;-82
2021/01/13 02:34:42;;;;;;;6.05;2.40;;;;;;;1.01;100.00;96728.47;4927203;29;20040;-82
2021/01/13 02:37:29;;;;;;;1.25;1.15;;;;;;;1.03;100.00;96727.50;4914693;29;20410;-82
2021/01/13 02:39:56;;;;;;;4.47;3.03;;;;;;;1.05;100.00;96724.78;4930716;29;20476;-83
2021/01/13 02:42:24;;;;;;;2.58;1.23;;;;;;;1.03;100.00;96724.00;4898917;29;20123;-82
2021/01/13 02:45:03;;;;;;;2.70;2.45;;;;;;;0.98;100.00;96718.06;4914558;29;20035;-82
2021/01/13 02:47:58;;;;;;;1.10;0.88;;;;;;;1.07;100.00;96713.31;4914229;29;20043;-83
2021/01/13 02:50:29;;;;;;;1.90;1.80;;;;;;;1.03;100.00;96718.72;4913360;29;20415;-82
2021/01/13 02:53:15;;;;;;;1.00;1.00;;;;;;;1.02;100.00;96717.88;4914729;29;20536;-83
2021/01/13 02:55:51;;;;;;;3.10;1.75;;;;;;;1.02;100.00;96714.38;4930339;29;20056;-83
2021/01/13 02:58:33;;;;;;;3.63;2.72;;;;;;;1.07;100.00;96717.69;4900223;29;20104;-83
2021/01/13 03:01:00;;;;;;;4.18;2.25;;;;;;;1.09;100.00;96710.59;4914716;29;20547;-83
2021/01/13 03:03:25;;;;;;;3.50;2.42;;;;;;;1.17;100.00;96715.59;4899145;29;20135;-83
2021/01/13 03:05:52;;;;;;;5.22;3.13;;;;;;;1.08;100.00;96709.72;4911078;29;20532;-82
2021/01/13 03:08:18;;;;;;;3.88;2.72;;;;;;;0.93;100.00;96698.94;4898772;29;20460;-84
2021/01/13 03:10:48;;;;;;;1.80;1.67;;;;;;;0.94;100.00;96708.56;4898597;29;20135;-83
2021/01/13 03:13:14;;;;;;;2.00;1.80;;;;;;;0.93;100.00;96709.44;4913488;29;20036;-83
2021/01/13 03:15:40;;;;;;;2.03;1.77;;;;;;;1.03;100.00;96706.44;4927153;29;20054;-83
2021/01/13 03:18:27;;;;;;;2.00;1.85;;;;;;;1.12;100.00;96699.94;4920687;29;20096;-82
2021/01/13 03:21:18;;;;;;;4.13;1.92;;;;;;;1.09;100.00;96705.34;4910783;29;20032;-82
2021/01/13 03:24:00;;;;;;;0.70;0.70;;;;;;;1.04;100.00;96695.00;4938628;29;20047;-83
2021/01/13 03:26:30;;;;;;;;;;;;;;;1.15;100.00;96699.81;4897087;29;20036;-82
2021/01/13 03:28:57;;;;;;;0.75;0.75;;;;;;;1.05;100.00;96699.31;4941941;28;20283;-82
2021/01/13 03:31:29;;;;;;;2.70;2.47;;;;;;;1.02;100.00;96696.81;4909757;29;20035;-81
2021/01/13 03:34:12;;;;;;;2.50;2.03;;;;;;;1.01;100.00;96696.88;4950176;28;20496;-81
2021/01/13 03:37:24;;;;;;;5.93;1.73;;;;;;;1.09;100.00;96711.47;4935277;29;20655;-82
2021/01/13 03:39:54;;;;;;;0.93;0.93;;;;;;;1.03;100.00;96706.44;4889382;29;20096;-82
2021/01/13 03:42:21;;;;;;;2.92;2.38;;;;;;;1.13;100.00;96712.22;4914645;29;20427;-81
2021/01/13 03:44:48;;;;;;;2.55;2.35;;;;;;;1.20;100.00;96713.66;4918433;29;20197;-82
2021/01/13 03:47:19;;;;;;;6.15;1.65;;;;;;;1.27;100.00;96717.78;4923442;29;20044;-81
2021/01/13 03:49:58;;;;;;;1.85;1.75;;;;;;;1.18;100.00;96712.00;4931595;29;20495;-82
2021/01/13 03:52:26;;;;;;;2.03;1.92;;;;;;;1.25;100.00;96711.72;4885020;29;20056;-82
2021/01/13 03:54:54;;;;;;;3.47;2.58;;;;;;;1.32;100.00;96721.13;4908433;29;20071;-82
2021/01/13 03:57:27;;;;;;;4.80;2.53;;;;;;;1.27;100.00;96715.16;4919993;29;20035;-82
2021/01/13 03:59:53;;;;;;;6.18;3.55;;;;;;;1.25;100.00;96713.50;4900503;29;20059;-82
2021/01/13 04:02:23;;;;;;;2.33;2.03;;;;;;;1.28;100.00;96711.59;4918963;29;20039;-82
2021/01/13 04:05:01;;;;;;;3.28;2.97;;;;;;;1.12;100.00;96710.47;4904101;29;20043;-82
2021/01/13 04:07:36;;;;;;;6.85;5.53;;;;;;;1.08;100.00;96715.00;4933679;29;20500;-82
2021/01/13 04:10:12;;;;;;;7.63;3.38;;;;;;;0.97;100.00;96711.06;4899065;29;20060;-82
2021/01/13 04:12:57;;;;;;;6.05;2.92;;;;;;;0.97;100.00;96700.53;4946267;29;20028;-82
2021/01/13 04:15:43;;;;;;;5.28;2.95;;;;;;;0.95;100.00;96710.28;4901102;29;20072;-82
2021/01/13 04:18:10;;;;;;;1.95;1.40;;;;;;;0.90;100.00;96701.66;4901021;29;20050;-82
2021/01/13 04:20:36;;;;;;;1.67;1.58;;;;;;;0.88;100.00;96716.69;4918358;29;20521;-82
2021/01/13 04:23:04;;;;;;;1.38;1.27;;;;;;;0.78;100.00;96704.75;4903195;29;20596;-83
2021/01/13 04:25:30;;;;;;;1.73;1.63;;;;;;;0.81;100.00;96699.38;4936131;29;20407;-82
2021/01/13 04:27:56;;;;;;;3.03;2.35;;;;;;;0.85;100.00;96698.38;4920993;29;20042;-81
2021/01/13 04:30:25;;;;;;;5.97;2.88;;;;;;;0.87;100.00;96704.41;4912410;29;20122;-82
2021/01/13 04:32:53;;;;;;;1.95;1.77;;;;;;;1.01;100.00;96707.41;4903607;29;20055;-82
2021/01/13 04:35:19;;;;;;;2.15;1.90;;;;;;;0.98;100.00;96712.78;4905486;29;20039;-82
2021/01/13 04:37:47;;;;;;;5.70;4.03;;;;;;;0.94;100.00;96706.78;4917528;29;20032;-82
2021/01/13 04:40:31;;;;;;;4.72;4.32;;;;;;;0.98;100.00;96708.38;4936049;29;20036;-82
2021/01/13 04:43:03;;;;;;;2.83;2.15;;;;;;;0.99;100.00;96715.34;4920120;29;20066;-83
2021/01/13 04:45:42;;;;;;;2.43;2.30;;;;;;;0.98;100.00;96713.66;4904655;29;20035;-83
2021/01/13 04:48:12;;;;;;;2.08;1.60;;;;;;;0.95;100.00;96707.63;4930096;29;20749;-82
2021/01/13 04:50:46;;;;;;;5.88;2.45;;;;;;;1.01;100.00;96717.94;4958650;28;20034;-82
2021/01/13 04:53:13;;;;;;;4.40;3.58;;;;;;;0.94;100.00;96716.44;4933104;29;20055;-81
2021/01/13 04:55:55;;;;;;;4.15;3.75;;;;;;;0.87;100.00;96720.22;4950300;28;20032;-81
2021/01/13 04:58:21;;;;;;;2.65;1.98;;;;;;;0.94;100.00;96724.34;4900853;29;20032;-82
2021/01/13 05:01:17;;;;;;;3.28;3.00;;;;;;;1.01;100.00;96733.72;4919054;29;20050;-81
2021/01/13 05:03:49;;;;;;;3.42;2.95;;;;;;;1.00;100.00;96726.75;4919318;29;20090;-81
2021/01/13 05:06:33;;;;;;;;;;;;;;;1.03;100.00;96737.16;4911843;29;20439;-81
2021/01/13 05:09:05;;;;;;;4.40;3.80;;;;;;;1.02;100.00;96732.78;4934660;29;20287;-81
2021/01/13 05:11:50;;;;;;;5.95;2.92;;;;;;;1.05;100.00;96730.06;4919572;29;20036;-82
2021/01/13 05:14:19;;;;;;;6.72;3.38;;;;;;;1.06;100.00;96731.78;4948967;29;20103;-82
2021/01/13 05:16:50;;;;;;;1.90;1.80;;;;;;;1.14;100.00;96736.75;4894449;29;20814;-82
2021/01/13 05:19:55;;;;;;;2.13;2.00;;;;;;;1.16;100.00;96722.63;4931250;29;20074;-83
2021/01/13 05:22:22;;;;;;;5.57;3.53;;;;;;;1.20;100.00;96732.09;4930086;29;20436;-82
2021/01/13 05:24:50;;;;;;;4.85;3.10;;;;;;;1.15;100.00;96733.19;4935338;29;20058;-84
2021/01/13 05:27:32;;;;;;;6.18;5.15;;;;;;;1.15;100.00;96735.81;4935084;29;20487;-81
2021/01/13 05:30:00;;;;;;;7.70;5.13;;;;;;;1.25;100.00;96732.81;4903025;29;20067;-82
2021/01/13 05:32:33;;;;;;;8.45;6.32;;;;;;;1.16;100.00;96725.25;4918716;29;20084;-81
2021/01/13 05:35:02;;;;;;;3.78;2.58;;;;;;;1.23;100.00;96729.34;4918079;29;20368;-82
2021/01/13 05:37:49;;;;;;;6.50;3.75;;;;;;;1.33;100.00;96735.97;4902894;29;20086;-81
2021/01/13 05:40:16;;;;;;;8.70;5.00;;;;;;;1.23;100.00;96737.25;4920658;29;20440;-82
2021/01/13 05:42:42;;;;;;;3.80;3.20;;;;;;;1.27;100.00;96740.63;4918760;29;20024;-78
2021/01/13 05:45:08;;;;;;;6.40;5.03;;;;;;;1.34;100.00;96742.13;4902439;29;20031;-80
2021/01/13 05:47:46;;;;;;;5.45;4.97;;;;;;;1.27;100.00;96749.38;4901810;29;20083;-81
2021/01/13 05:50:17;;;;;;;3.40;3.10;;;;;;;1.27;100.00;96741.50;4934827;29;20043;-82
2021/01/13 05:52:42;;;;;;;3.70;2.97;;;;;;;1.25;100.00;96745.97;4903284;29;20038;-81
2021/01/13 05:55:08;;;;;;;4.55;4.18;;;;;;;1.27;100.00;96746.75;4918640;29;20110;-81
2021/01/13 05:57:36;;;;;;;9.60;4.30;;;;;;;1.20;100.00;96745.25;4902815;29;20098;-81
2021/01/13 06:00:04;;;;;;;3.30;3.00;;;;;;;1.19;100.00;96742.69;4935123;29;20038;-80
2021/01/13 06:02:33;;;;;;;2.90;2.70;;;;;;;1.27;100.00;96759.91;4934212;29;20039;-81
2021/01/13 06:05:06;;;;;;;3.83;3.42;;;;;;;1.28;100.00;96750.25;4915398;29;20420;-80
2021/01/13 06:07:33;;;;;;;3.35;3.03;;;;;;;1.33;100.00;96757.06;4900547;29;20316;-81
2021/01/13 06:10:00;;;;;;;3.75;3.42;;;;;;;1.32;100.00;96754.50;4918562;29;20031;-80
2021/01/13 06:12:27;;;;;;;8.98;4.28;;;;;;;1.29;100.00;96759.88;4918512;29;20519;-80
2021/01/13 06:14:54;;;;;;;4.90;4.35;;;;;;;1.35;100.00;96770.19;4902839;29;20027;-81
2021/01/13 06:17:24;;;;;;;12.73;6.10;;;;;;;1.32;100.00;96760.63;4902820;29;20102;-81
2021/01/13 06:19:54;;;;;;;10.15;6.05;;;;;;;1.38;100.00;96767.44;4915499;29;20111;-81
2021/01/13 06:22:31;;;;;;;13.25;7.93;;;;;;;1.31;100.00;96763.31;4943294;29;20024;-82
2021/01/13 06:24:58;;;;;;;10.75;5.50;;;;;;;1.33;100.00;96767.59;4927570;29;20554;-82
2021/01/13 06:27:48;;;;;;;3.30;3.00;;;;;;;1.32;100.00;96765.03;4950253;29;20032;-82
2021/01/13 06:30:21;;;;;;;13.38;6.63;;;;;;;1.26;100.00;96776.63;4934395;29;20159;-81
2021/01/13 06:32:49;;;;;;;5.47;4.97;;;;;;;1.31;100.00;96768.56;4918665;29;20047;-80
2021/01/13 06:35:33;;;;;;;11.25;5.43;;;;;;;1.45;100.00;96771.53;4933906;29;20411;-81
2021/01/13 06:38:00;;;;;;;5.68;3.15;;;;;;;1.52;100.00;96776.50;4911083;29;20043;-81
2021/01/13 06:40:25;;;;;;;8.70;4.72;;;;;;;1.47;100.00;96765.31;4902065;29;20091;-81
2021/01/13 06:42:51;;;;;;;2.40;2.25;;;;;;;1.37;100.00;96778.88;4910393;29;20024;-80
2021/01/13 06:45:33;;;;;;;1.75;1.40;;;;;;;1.47;100.00;96774.97;4902449;29;20118;-81
2021/01/13 06:47:59;;;;;;;4.65;4.25;;;;;;;1.54;100.00;96782.56;4907841;29;20472;-81
2021/01/13 06:50:38;;;;;;;39.72;5.15;;;;;;;1.69;99.29;96786.41;4915827;29;20127;-81
2021/01/13 06:53:11;;;;;;;9.63;6.10;;;;;;;1.77;99.47;96783.44;4933948;29;20063;-81
2021/01/13 06:55:41;;;;;;;4.97;4.32;;;;;;;1.90;98.37;96790.81;4901906;29;20110;-81
2021/01/13 06:58:16;;;;;;;9.48;5.63;;;;;;;1.95;98.16;96801.16;4914804;29;20028;-81
2021/01/13 07:00:43;;;;;;;11.45;7.15;;;;;;;1.82;98.76;96784.09;4944604;29;20035;-81
2021/01/13 07:03:29;;;;;;;9.30;7.63;;;;;;;1.89;98.80;96798.78;4911750;29;20030;-81
2021/01/13 07:05:58;;;;;;;13.80;8.68;;;;;;;2.00;98.30;96792.13;4902136;29;20044;-81
2021/01/13 07:08:24;;;;;;;13.25;7.72;;;;;;;2.13;97.81;96806.56;4919282;29;20095;-81
2021/01/13 07:11:10;;;;;;;13.50;6.53;;;;;;;2.14;97.78;96816.19;4931283;29;20491;-81
2021/01/13 07:13:48;;;;;;;9.88;7.70;;;;;;;2.15;97.12;96811.78;4933624;29;20035;-82
2021/01/13 07:16:15;;;;;;;12.68;7.85;;;;;;;2.22;96.73;96818.50;4917508;29;20059;-82
2021/01/13 07:18:40;;;;;;;13.20;6.30;;;;;;;2.18;96.52;96809.84;4917378;29;20066;-82
2021/01/13 07:21:10;;;;;;;12.05;8.18;;;;;;;2.28;95.72;96810.34;4949421;29;20035;-83
2021/01/13 07:23:44;;;;;;;22.27;8.02;;;;;;;2.40;98.80;96803.72;4917128;29;20058;-82
2021/01/13 07:26:11;;;;;;;28.10;7.35;;;;;;;2.51;95.30;96807.63;4917483;29;20039;-82
2021/01/13 07:28:37;;;;;;;7.95;4.80;;;;;;;2.26;97.07;96799.00;4917689;29;20079;-81
2021/01/13 07:31:04;;;;;;;8.73;3.75;;;;;;;2.38;96.42;96809.03;4917595;29;20039;-81
2021/01/13 07:33:41;;;;;;;12.32;7.68;;;;;;;2.42;94.59;96797.44;4933500;29;20035;-81
2021/01/13 07:36:12;;;;;;;7.55;6.43;;;;;;;2.46;94.02;96796.38;4898537;29;20032;-81
2021/01/13 07:38:42;;;;;;;7.57;5.38;;;;;;;2.56;92.38;96800.34;4898375;29;20042;-82
2021/01/13 07:41:09;;;;;;;10.32;7.15;;;;;;;2.63;92.66;96799.19;4949141;29;20023;-83
2021/01/13 07:43:54;;;;;;;12.98;6.43;;;;;;;2.69;92.20;96804.19;4917576;29;20040;-81
2021/01/13 07:46:32;;;;;;;9.68;5.70;;;;;;;2.83;92.81;96800.09;4916967;29;20031;-80
2021/01/13 07:49:19;;;;;;;17.25;7.97;;;;;;;2.93;92.20;96806.69;4932834;29;20471;-81
2021/01/13 07:51:49;;;;;;;14.60;10.48;;;;;;;2.70;92.64;96800.63;4932766;29;20395;-82
2021/01/13 07:54:41;;;;;;;15.00;7.47;;;;;;;2.60;92.70;96804.59;4917024;29;20032;-82
2021/01/13 07:57:07;;;;;;;12.07;7.78;;;;;;;2.70;94.03;96802.41;4897596;29;20098;-83
2021/01/13 07:59:42;;;;;;;17.33;9.52;;;;;;;2.83;92.79;96808.03;4932224;29;20068;-82
2021/01/13 08:02:46;;;;;;;17.60;8.57;;;;;;;2.98;91.89;96804.72;4916985;29;20078;-81
2021/01/13 08:05:21;;;;;;;15.88;11.15;;;;;;;3.07;91.56;96814.88;4894141;29;20042;-80
2021/01/13 08:08:07;;;;;;;17.58;7.85;;;;;;;2.98;92.12;96810.00;4917162;29;20053;-81
2021/01/13 08:10:38;;;;;;;13.95;9.23;;;;;;;2.90;92.94;96812.09;4916926;29;20031;-82
2021/01/13 08:13:25;;;;;;;10.95;6.53;;;;;;;3.07;92.01;96820.16;4916772;29;20027;-81
2021/01/13 08:16:12;;;;;;;13.55;7.03;;;;;;;3.14;91.95;96817.16;4932400;29;20039;-81
2021/01/13 08:19:27;;;;;;;7.55;5.43;;;;;;;3.18;90.49;96807.31;4932862;29;20135;-82
2021/01/13 08:22:04;;;;;;;12.85;8.27;;;;;;;3.10;90.82;96801.53;4914999;29;20126;-81
2021/01/13 08:24:31;;;;;;;13.63;9.43;;;;;;;3.18;90.32;96808.19;4918169;29;20051;-81
2021/01/13 08:27:04;;;;;;;15.68;9.50;;;;;;;3.32;89.98;96817.28;4901066;29;20098;-83
2021/01/13 08:29:37;;;;;;;7.85;6.28;;;;;;;3.15;91.33;96823.31;4917320;29;20039;-82
2021/01/13 08:32:04;;;;;;;10.23;6.03;;;;;;;3.20;91.23;96831.88;4898035;29;20035;-82
2021/01/13 08:34:41;;;;;;;12.50;8.13;;;;;;;3.31;91.37;96837.56;4927671;29;20083;-81
2021/01/13 08:37:08;;;;;;;11.77;7.45;;;;;;;3.42;88.42;96819.41;4901066;29;20036;-82
2021/01/13 08:39:36;;;;;;;14.63;8.48;;;;;;;3.49;89.55;96835.84;4913900;29;20036;-82
2021/01/13 08:42:21;;;;;;;9.60;6.43;;;;;;;3.43;90.63;96854.63;4946854;29;20042;-83
2021/01/13 08:44:48;;;;;;;11.82;7.50;;;;;;;3.42;90.72;96844.97;4932663;29;20090;-83
2021/01/13 08:47:13;;;;;;;20.52;8.85;;;;;;;3.46;91.36;96854.50;4916648;29;20514;-83
2021/01/13 08:49:39;;;;;;;18.23;8.10;;;;;;;3.46;91.49;96855.38;4913009;29;20122;-83
2021/01/13 08:52:21;;;;;;;11.68;5.80;;;;;;;3.26;91.53;96848.31;4930809;29;20035;-83
2021/01/13 08:54:56;;;;;;;12.57;7.07;;;;;;;3.39;91.05;96863.63;4916077;29;20044;-83
2021/01/13 08:57:24;;;;;;;13.02;8.38;;;;;;;3.20;91.58;96853.88;4909098;29;20043;-83
2021/01/13 08:59:49;;;;;;;9.50;7.57;;;;;;;3.31;91.60;96857.84;4900067;29;20508;-84
2021/01/13 09:02:17;;;;;;;10.98;7.45;;;;;;;3.47;91.59;96854.44;4916112;29;20031;-82
2021/01/13 09:04:45;;;;;;;14.40;8.75;;;;;;;3.60;90.89;96858.22;4916239;29;20071;-82
2021/01/13 09:07:13;;;;;;;14.73;9.82;;;;;;;3.60;90.42;96868.81;4931773;29;20051;-81
2021/01/13 09:09:43;;;;;;;8.60;6.45;;;;;;;3.82;89.94;96858.09;4913315;29;20039;-82
2021/01/13 09:12:29;;;;;;;12.77;6.15;;;;;;;3.99;88.16;96841.44;4917829;29;20448;-82
2021/01/13 09:15:07;;;;;;;7.47;5.63;;;;;;;3.91;88.36;96862.13;4918957;29;20491;-84
2021/01/13 09:17:35;;;;;;;9.05;6.03;;;;;;;3.84;89.04;96865.03;4919606;29;20110;-83
2021/01/13 09:20:07;;;;;;;13.13;8.02;;;;;;;3.79;89.33;96855.59;4935429;29;20429;-83
2021/01/13 09:22:49;;;;;;;24.83;11.15;;;;;;;3.77;87.84;96855.69;4919346;29;20038;-83
2021/01/13 09:25:44;;;;;;;18.15;9.43;;;;;;;3.90;89.29;96855.13;4903523;29;20078;-82
2021/01/13 09:28:18;;;;;;;6.47;5.32;;;;;;;3.92;88.20;96848.81;4934825;29;20407;-82
2021/01/13 09:30:43;;;;;;;6.13;5.47;;;;;;;3.95;88.78;96845.16;4903583;29;20036;-82
2021/01/13 09:33:13;;;;;;;19.98;9.20;;;;;;;3.86;89.68;96841.16;4917643;29;20526;-82
2021/01/13 09:35:43;;;;;;;19.95;9.45;;;;;;;3.95;89.03;96848.66;4918893;29;20030;-82
2021/01/13 09:38:26;;;;;;;13.05;7.22;;;;;;;4.16;87.67;96849.44;4950595;29;20591;-83
2021/01/13 09:40:52;;;;;;;9.50;6.47;;;;;;;4.29;86.75;96847.91;4900057;29;20152;-83
2021/01/13 09:43:31;;;;;;;13.77;7.03;;;;;;;4.24;85.63;96842.00;4903068;29;20115;-83
2021/01/13 09:46:03;;;;;;;11.25;5.35;;;;;;;4.25;84.46;96835.75;4918753;29;20389;-83
2021/01/13 09:48:31;;;;;;;8.18;5.07;;;;;;;3.76;84.41;96816.06;4934653;29;20031;-83
2021/01/13 09:50:58;;;;;;;6.47;5.50;;;;;;;3.92;85.77;96832.09;4934770;29;20050;-83
2021/01/13 09:53:35;;;;;;;6.43;4.45;;;;;;;4.13;85.66;96834.56;4926894;29;20039;-83
2021/01/13 09:56:09;;;;;;;12.18;6.13;;;;;;;3.73;86.32;96822.38;4915716;29;20111;-83
2021/01/13 09:58:37;;;;;;;14.45;5.35;;;;;;;4.05;84.04;96817.34;4931641;29;20450;-83
2021/01/13 10:01:07;;;;;;;9.52;5.72;;;;;;;4.35;84.45;96811.41;4915894;29;20031;-82
2021/01/13 10:03:33;;;;;;;11.23;7.63;;;;;;;4.48;83.48;96824.06;4918876;29;20038;-82
2021/01/13 10:05:59;;;;;;;15.95;7.03;;;;;;;4.67;82.38;96812.47;4903908;29;20399;-83
2021/01/13 10:08:31;;;;;;;9.13;6.53;;;;;;;4.76;83.02;96811.16;4934295;29;20122;-82
2021/01/13 10:10:58;;;;;;;19.50;10.32;;;;;;;4.70;81.83;96816.75;4902810;29;20035;-84
2021/01/13 10:13:26;;;;;;;23.90;8.18;;;;;;;4.50;81.87;96799.22;4918302;29;20138;-83
2021/01/13 10:15:59;;;;;;;9.43;6.68;;;;;;;4.70;82.05;96804.38;4930790;29;20028;-82
2021/01/13 10:18:26;;;;;;;8.93;6.07;;;;;;;4.93;80.91;96809.34;4933633;29;20475;-82
2021/01/13 10:20:56;;;;;;;8.82;6.85;;;;;;;5.12;81.15;96801.28;4902057;29;20078;-82
2021/01/13 10:23:28;;;;;;;13.15;7.60;;;;;;;5.20;79.56;96806.22;4933835;29;20598;-83
2021/01/13 10:26:07;;;;;;;9.20;7.43;;;;;;;5.46;78.21;96809.19;4933659;29;20122;-82
2021/01/13 10:28:34;;;;;;;22.55;9.25;;;;;;;5.49;78.51;96805.50;4918145;29;20463;-82
2021/01/13 10:31:00;;;;;;;13.70;7.22;;;;;;;5.78;76.82;96807.41;4933922;29;20032;-83
2021/01/13 10:33:53;;;;;;;18.08;8.23;;;;;;;6.11;74.48;96801.22;4933687;29;20102;-82
2021/01/13 10:36:45;;;;;;;6.30;4.53;;;;;;;6.10;74.82;96802.16;4897441;29;20028;-83
2021/01/13 10:39:12;;;;;;;12.95;9.98;;;;;;;6.12;75.55;96792.31;4899511;29;20031;-82
2021/01/13 10:41:40;;;;;;;20.27;9.50;;;;;;;5.92;75.44;96785.47;4902167;29;20032;-82
2021/01/13 10:44:07;;;;;;;12.85;9.10;;;;;;;5.78;75.70;96778.22;4901697;29;20059;-82
2021/01/13 10:46:44;;;;;;;22.55;15.50;;;;;;;5.73;77.07;96780.28;4935093;29;20055;-83
2021/01/13 10:49:20;;;;;;;16.90;10.23;;;;;;;5.66;77.06;96773.59;4902144;29;20051;-82
2021/01/13 10:51:49;;;;;;;15.90;9.90;;;;;;;5.69;77.97;96786.69;4898722;29;20039;-82
2021/01/13 10:54:19;;;;;;;14.00;7.90;;;;;;;5.27;79.00;96779.28;4931385;29;20035;-83
2021/01/13 10:56:46;;;;;;;23.40;9.20;;;;;;;5.35;79.44;96790.31;4901916;29;20023;-83
2021/01/13 10:59:16;;;;;;;16.75;10.10;;;;;;;5.31;79.64;96790.56;4899170;29;20487;-83
2021/01/13 11:02:02;;;;;;;20.17;9.75;;;;;;;5.28;81.86;96783.66;4898444;29;20032;-83
2021/01/13 11:04:29;;;;;;;14.90;8.98;;;;;;;4.89;83.08;96786.56;4901607;29;20098;-82
2021/01/13 11:07:07;;;;;;;14.48;6.93;;;;;;;4.56;84.37;96777.72;4917506;29;20024;-83
2021/01/13 11:09:35;;;;;;;18.30;9.80;;;;;;;4.77;84.23;96787.22;4930066;29;20032;-83
2021/01/13 11:12:01;;;;;;;11.73;6.78;;;;;;;4.61;83.89;96782.78;4925775;29;20028;-84
2021/01/13 11:14:33;;;;;;;14.65;7.50;;;;;;;4.66;85.11;96791.34;4946756;29;20411;-83
2021/01/13 11:17:04;;;;;;;13.55;7.35;;;;;;;4.55;85.85;96783.09;4901517;29;20127;-83
2021/01/13 11:19:30;;;;;;;8.55;5.57;;;;;;;4.64;84.39;96791.44;4901549;29;20027;-83
2021/01/13 11:21:57;;;;;;;8.77;5.75;;;;;;;4.64;84.69;96782.63;4917248;29;20027;-84
2021/01/13 11:24:52;;;;;;;10.15;4.97;;;;;;;4.68;83.18;96794.75;4899279;29;20048;-82
2021/01/13 11:27:20;;;;;;;7.80;3.97;;;;;;;4.71;83.43;96795.47;4884874;29;20126;-83
2021/01/13 11:29:49;;;;;;;4.60;3.78;;;;;;;4.64;83.44;96794.09;4901165;29;20503;-85
2021/01/13 11:32:17;;;;;;;8.18;5.95;;;;;;;4.63;87.19;96795.00;4897766;29;20036;-82
2021/01/13 11:34:47;;;;;;;9.27;5.57;;;;;;;4.45;84.60;96790.66;4932635;29;20521;-83
2021/01/13 11:37:20;;;;;;;6.78;5.53;;;;;;;4.22;85.08;96790.91;4916972;29;20415;-83
2021/01/13 11:39:49;;;;;;;8.38;5.43;;;;;;;4.48;84.93;96787.84;4916964;29;20534;-84
2021/01/13 11:42:32;;;;;;;6.35;5.65;;;;;;;4.63;83.43;96788.84;4932462;29;20130;-83
2021/01/13 11:45:15;;;;;;;9.32;5.72;;;;;;;4.75;81.58;96785.59;4916667;29;20503;-83
2021/01/13 11:47:42;;;;;;;13.30;8.18;;;;;;;4.80;83.40;96776.47;4901150;29;20043;-84
2021/01/13 11:50:13;;;;;;;7.07;5.45;;;;;;;4.74;82.47;96776.78;4948765;29;20036;-82
2021/01/13 11:52:43;;;;;;;13.95;7.13;;;;;;;4.81;83.61;96777.31;4932790;29;20191;-84
2021/01/13 11:55:09;;;;;;;11.50;7.40;;;;;;;4.63;83.40;96768.53;4916843;29;20040;-83
2021/01/13 11:57:35;;;;;;;6.68;5.53;;;;;;;4.40;85.37;96778.59;4916580;29;20035;-83
2021/01/13 12:00:13;;;;;;;9.20;5.78;;;;;;;4.28;86.49;96791.47;4932347;29;20495;-83